World of Logs combat log analyzer allows gamers to save, share and analyze their raiding experiences conveniently and thoroughly in the Blizzard MMO World of Warcraft. If you're new here, make sure you check out the tour for a 1 minute introduction. If you have any questions, we're happy to answer them on the forums.

DPS HPS
Odyn
Helya
Guarm
Reports for Grand Empress Shek'zeer - statistics
# Date Time Damage DPS Guild Realm
1 07 Apr 2013 03:13 549.86M 2844303.7 Aurora EU-Stormrage
2 27 May 2013 03:33 549.92M 2578931.3 Wraith EU-Sargeras
3 12 Jan 2014 05:10 915.37M 2944245.6 Andrew US-Fizzcrank
4 15 Jan 2013 05:30 970.76M 2935719.7 Echoes EU-Laughing Skull
5 11 Feb 2013 06:06 1019.96M 2783839.2 Улыбаемся и машем EU-Ревущий фьорд
6 27 May 2013 06:12 921.89M 2473861.2 Intl Bank of Azeroth US-Mannoroth
7 11 Mar 2013 06:13 919.70M 2462138.0 Black Division EU-Drak'thul
8 20 Feb 2013 06:17 1002.04M 2655855.4 Ninjapartio EU-Darksorrow
9 20 Feb 2013 06:17 1001.95M 2655541.4 Ninjapartio EU-Darksorrow
10 04 Mar 2013 06:17 937.70M 2484548.5 The Magnificent EU-Stormreaver
11 17 Mar 2013 06:21 914.37M 2394159.6 Eternal Reign US-Lightbringer
12 20 Dec 2012 06:26 1016.70M 2630242.1 Echoes EU-Laughing Skull
13 29 Jan 2013 06:31 1020.86M 2607121.0 Ascendance EU-Draenor
14 27 Jan 2013 06:36 1018.07M 2570642.0 Insomnio EU-Dun Modr
15 29 Nov 2012 06:37 991.81M 2496971.5 Defenestrate US-Blackrock
16 05 Feb 2013 06:41 1025.35M 2556096.1 The Great Danes EU-Ravencrest
17 30 Dec 2012 06:42 1000.08M 2482315.6 Echoes EU-Laughing Skull
18 17 Dec 2012 06:43 1015.77M 2517033.9 Eternal Reign US-Lightbringer
19 21 Jan 2013 06:44 1043.47M 2577356.3 Naitomea EU-Thrall
20 22 Apr 2013 06:44 921.44M 2275803.1 Over EU-Khaz Modan
21 27 Jan 2013 06:46 1019.10M 2507511.9 The Howl EU-Kael'thas
22 27 Jan 2013 06:46 1019.10M 2507468.8 The Howl EU-Kael'thas
23 18 Dec 2012 06:47 1029.69M 2527469.6 Flawless EU-Frostwolf
24 18 Dec 2012 06:47 1029.69M 2527463.4 Flawless EU-Frostwolf
25 21 Mar 2013 06:47 921.05M 2259731.0 Ninjas In The Rafters US-Runetotem
26 19 Dec 2012 06:49 1016.50M 2484728.4 Desolate EU-Frostwhisper
27 03 Jan 2013 06:52 1009.78M 2447925.1 Pure EU-Turalyon
28 07 Jan 2013 06:53 1019.39M 2467844.6 Aftermath US-Mal'Ganis
29 11 Feb 2013 06:56 1016.93M 2444412.0 Unhuman US-Arthas
30 13 Dec 2012 06:56 1027.86M 2467757.2 Method EU-Twisting Nether
31 13 Dec 2012 06:56 1027.86M 2467668.3 Method EU-Twisting Nether
32 13 Dec 2012 06:56 1027.86M 2467650.6 Method EU-Twisting Nether
33 28 Jan 2013 06:57 965.64M 2311060.1 Voodoo People EU-Ragnaros
34 30 Dec 2012 06:57 1020.53M 2441474.2 Pwnanza EU-Kazzak
35 03 Mar 2013 06:58 1025.91M 2453079.8 Hammerburgs Erben EU-Krag'jin
36 03 Mar 2013 06:58 1025.91M 2452311.7 Inhume EU-Blackmoore
37 03 Mar 2013 06:58 1025.91M 2452311.7 echoes EU-Blackrock
38 03 Mar 2013 06:58 1025.91M 2452235.5 Inhume EU-Blackmoore
39 07 Feb 2013 06:59 1016.49M 2425676.3 Vox US-Kel'Thuzad
40 24 Jan 2013 06:59 1043.91M 2487581.8 Naitomea EU-Thrall
41 19 Dec 2012 07:01 1026.31M 2435796.2 Aurora EU-Stormrage
42 17 Jan 2013 07:01 996.66M 2361999.0 Lorekeepers EU-Darksorrow
43 26 Jan 2013 07:02 1048.03M 2481232.8 M I C US-Arthas
44 19 Dec 2012 07:02 1016.77M 2404650.3 HotshLogs US-Mal'Ganis
45 17 Dec 2012 07:02 1016.29M 2403334.8 Desolate EU-Frostwhisper
46 14 Jan 2013 07:03 1034.56M 2445485.6 Static US-Arthas
47 14 Jan 2013 07:03 1034.56M 2445398.9 Hahfail US-Whisperwind
48 31 Jan 2013 07:03 1017.97M 2405892.8 Divinitii's Logs US-Zul'jin
49 02 Jan 2013 07:03 1036.08M 2448672.5 Static US-Arthas
50 31 Jan 2013 07:03 1017.97M 2405574.4 Gamble US-Mal'Ganis
51 04 Feb 2013 07:03 1019.93M 2410200.0 No Remorse EU-Kazzak
52 31 Jan 2013 07:03 1017.97M 2405528.9 FInal Logs US-Dalaran
53 02 Jan 2013 07:03 1036.08M 2448140.2 Hahfail US-Whisperwind
54 07 Jan 2013 07:04 1012.61M 2386402.0 Desolate EU-Frostwhisper
55 21 Jan 2013 07:05 1022.81M 2403205.0 Novus Ordo Seclorum EU-Bloodhoof
56 07 Feb 2013 07:05 1023.29M 2404223.0 Might US-Zul'jin
57 20 Dec 2012 07:06 1025.42M 2406888.4 Ahab's Logs US-Baelgun
58 20 Dec 2012 07:06 1025.42M 2406860.2 Smokeys US-Baelgun
59 06 Jan 2013 07:06 1017.95M 2385782.6 Something Wicked US-Whisperwind
60 03 Dec 2012 07:07 1021.27M 2391516.9 HotshLogs US-Mal'Ganis
61 03 Jun 2013 07:07 922.68M 2158586.0 QQ1 EU-Silvermoon
62 04 Mar 2013 07:07 935.37M 2186776.5 Obscure EU-The Sha'tar
63 04 Mar 2013 07:07 935.37M 2186490.3 Obscure EU-The Sha'tar
64 21 Dec 2012 07:07 1018.37M 2379921.4 Thanatos Erpetos EU-Mannoroth
65 19 Mar 2013 07:08 919.47M 2147186.1 Shaqu EU-Tarren Mill
66 13 Jan 2013 07:08 1041.03M 2429049.8 Months Behind US-Eredar
67 11 Dec 2012 07:08 1023.41M 2387168.3 Synaisthesis EU-Ревущий фьорд
68 14 Jan 2013 07:08 1025.41M 2391427.3 Unhuman US-Arthas
69 17 Feb 2013 07:08 1023.88M 2387745.6 Littlemisslogs EU-Silvermoon
70 15 Jan 2013 07:08 1025.41M 2391265.6 Unhuman US-Arthas
71 18 Feb 2013 07:08 1029.89M 2401342.3 Cyborg EU-Antonidas
72 07 Jan 2013 07:08 1021.36M 2381391.7 Core EU-Gorgonnash
73 20 Dec 2012 07:09 1020.24M 2377841.8 Tempest EU-Blackmoore
74 10 Dec 2012 07:09 1018.07M 2372458.6 <Dread> - Angel US-Korgath
75 10 Dec 2012 07:09 1018.07M 2372414.4 Dread US-Korgath
76 05 Feb 2013 07:09 1021.29M 2378547.5 Foedus Ultoris EU-Aegwynn
77 21 Dec 2012 07:09 1025.77M 2385965.0 Shake Miracle US-Illidan
78 24 Jan 2013 07:10 1019.98M 2371340.2 ScrubBusters EU-The Maelstrom
79 11 Dec 2012 07:10 1024.55M 2381947.7 Blow EU-Illidan
80 15 Mar 2013 07:10 937.35M 2178406.3 Nerfed US-Malygos
81 15 Mar 2013 07:10 937.35M 2178082.4 Equitas US-Malygos
82 03 Jan 2013 07:10 1041.66M 2419520.9 Drachensilber EU-Die Silberne Hand
83 27 Jan 2013 07:10 1026.15M 2381058.3 Эпилог EU-Разувий
84 09 Dec 2012 07:11 1040.39M 2412125.9 Aurora EU-Stormrage
85 31 Jan 2013 07:11 1023.17M 2371074.4 The Nephilim EU-Neptulon
86 03 Feb 2013 07:11 1044.55M 2418471.2 Naitomea EU-Thrall
87 28 Jan 2013 07:12 1017.60M 2352923.9 Effective EU-Nazjatar
88 13 Feb 2013 07:12 1022.21M 2362977.9 Oblivion EU-Anub'arak
89 08 Jan 2013 07:12 951.58M 2199247.2 Senyss EU-Kazzak
90 03 Mar 2013 07:13 1035.26M 2390687.7 Rise inc EU-Blackrock
91 28 Jan 2013 07:13 1018.54M 2351349.3 Sacrifice US-Mannoroth
92 31 Jan 2013 07:13 1038.50M 2396684.0 Left for Dead US-Bleeding Hollow
93 09 Jan 2013 07:13 931.77M 2150080.4 Friend Zone US-Darkspear
94 15 Jan 2013 07:14 863.09M 1984807.3 KLR EU-Sylvanas
95 20 Jan 2013 07:15 1021.27M 2346698.2 Velinart EU-Garona
96 03 Mar 2013 07:15 1022.37M 2347058.1 Desolution EU-Twisting Nether
97 15 Jan 2013 07:15 984.59M 2259222.9 Omnium EU-Kael'thas
98 30 Dec 2012 07:15 1020.22M 2340239.4 Luce EU-Draenor
99 28 Jan 2013 07:15 1016.81M 2332382.2 AdActa EU-Antonidas
100 10 Jan 2013 07:16 1018.63M 2336075.6 Good Riddance US-Illidan

Please do not close the page with the ad you want to report.

I've posted a guide on how to report misbehaving ads on the forum. Please follow the instructions and help make the internet a safer place. Thanks for you time.